Time;durP1;ratioP1;P1;durP2;ratioP2;P2;SDS_P1;SDS_P2;PMS_P1;PMS_P2;Temp;Humidity;BMP_temperature;BMP_pressure;BME280_temperature;BME280_humidity;BME280_pressure;Samples;Min_cycle;Max_cycle;Signal;HPM_P1;HPM_P2
2022/12/08 00:01:18;;;;;;;30.65;11.90;;;;;;;-4.57;100.00;100989.26;1667976;84;22280;-61
2022/12/08 00:03:46;;;;;;;15.35;8.10;;;;;;;-4.56;100.00;100993.89;1678368;83;21137;-60
2022/12/08 00:09:33;;;;;;;23.18;9.58;;;;;;;-4.57;100.00;101002.43;1688285;83;22399;-61
2022/12/08 00:12:03;;;;;;;20.40;9.98;;;;;;;-4.58;100.00;101001.61;1695525;84;21630;-62
2022/12/08 00:14:42;;;;;;;17.98;8.35;;;;;;;-4.59;100.00;101001.20;1690888;84;21534;-64
2022/12/08 00:17:10;;;;;;;23.20;9.88;;;;;;;-4.58;100.00;101004.16;1694999;83;20948;-62
2022/12/08 00:19:40;;;;;;;18.90;8.53;;;;;;;-4.56;100.00;100996.44;1703541;82;20890;-62
2022/12/08 00:22:08;;;;;;;23.25;10.40;;;;;;;-4.60;100.00;100988.12;1662796;84;21544;-63
2022/12/08 00:24:38;;;;;;;24.40;11.12;;;;;;;-4.61;100.00;100988.20;1686598;83;21674;-63
2022/12/08 00:27:07;;;;;;;19.40;9.38;;;;;;;-4.63;100.00;100987.42;1676904;84;21315;-64
2022/12/08 00:29:34;;;;;;;33.65;13.72;;;;;;;-4.65;100.00;100987.05;1676722;84;21012;-63
2022/12/08 00:32:02;;;;;;;28.15;11.18;;;;;;;-4.69;100.00;100979.19;1672403;84;21020;-62
2022/12/08 00:34:30;;;;;;;17.42;9.15;;;;;;;-4.69;100.00;100980.91;1669793;83;21010;-62
2022/12/08 00:36:58;;;;;;;24.72;10.43;;;;;;;-4.69;100.00;100985.54;1687361;83;21190;-62
2022/12/08 00:39:25;;;;;;;24.47;11.63;;;;;;;-4.72;100.00;100979.31;1674513;83;21355;-62
2022/12/08 00:42:11;;;;;;;19.15;9.78;;;;;;;-4.76;100.00;100978.25;1674257;84;21520;-62
2022/12/08 00:44:43;;;;;;;20.65;8.18;;;;;;;-4.79;100.00;100984.73;1673993;84;21109;-62
2022/12/08 00:47:10;;;;;;;19.00;9.63;;;;;;;-4.86;100.00;100989.25;1673683;84;20963;-61
2022/12/08 00:49:37;;;;;;;26.17;10.90;;;;;;;-4.93;100.00;100996.77;1681532;83;21045;-61
2022/12/08 00:52:05;;;;;;;21.02;10.15;;;;;;;-4.99;100.00;100983.06;1684862;83;21525;-62
2022/12/08 00:54:33;;;;;;;24.50;10.53;;;;;;;-5.04;100.00;100980.69;1682669;83;21130;-62
2022/12/08 00:57:01;;;;;;;19.32;9.23;;;;;;;-5.05;100.00;100980.77;1690366;83;21150;-62
2022/12/08 00:59:28;;;;;;;16.85;8.83;;;;;;;-5.06;100.00;100976.58;1689198;82;21609;-62
2022/12/08 01:01:57;;;;;;;25.32;12.33;;;;;;;-5.06;100.00;100972.77;1683915;83;21014;-63
2022/12/08 01:04:25;;;;;;;17.52;10.55;;;;;;;-5.06;100.00;100980.39;1687867;84;21261;-65
2022/12/08 01:06:52;;;;;;;15.40;9.38;;;;;;;-5.07;100.00;100975.77;1687740;84;21145;-63
2022/12/08 01:09:20;;;;;;;15.90;8.45;;;;;;;-5.08;100.00;100968.19;1687520;84;21502;-64
2022/12/08 01:11:49;;;;;;;13.50;7.85;;;;;;;-5.09;100.00;100967.81;1692249;84;21456;-63
2022/12/08 01:14:17;;;;;;;16.77;8.60;;;;;;;-5.10;100.00;100967.44;1693598;84;20996;-62
2022/12/08 01:16:44;;;;;;;17.07;9.70;;;;;;;-5.13;100.00;100964.58;1692763;83;21060;-63
2022/12/08 01:19:14;;;;;;;16.87;9.00;;;;;;;-5.14;100.00;100973.09;1692666;84;20971;-63
2022/12/08 01:21:42;;;;;;;15.40;8.98;;;;;;;-5.16;100.00;100982.04;1693293;84;20991;-63
2022/12/08 01:24:16;;;;;;;17.27;8.40;;;;;;;-5.16;100.00;100987.13;1693269;84;21437;-63
2022/12/08 01:26:43;;;;;;;15.65;8.88;;;;;;;-5.17;100.00;100970.68;1686763;83;21011;-62
2022/12/08 01:29:10;;;;;;;18.15;9.35;;;;;;;-5.19;100.00;100978.38;1687228;84;22534;-63
2022/12/08 01:31:38;;;;;;;17.23;9.85;;;;;;;-5.20;100.00;100977.98;1687865;84;21121;-62
2022/12/08 01:34:26;;;;;;;17.92;9.90;;;;;;;-5.20;100.00;100979.70;1687826;83;21015;-62
2022/12/08 01:36:54;;;;;;;19.05;9.88;;;;;;;-5.19;100.00;100976.26;1637318;87;21045;-62
2022/12/08 01:39:21;;;;;;;16.62;9.40;;;;;;;-5.17;100.00;100975.31;1636532;86;21081;-63
2022/12/08 01:41:49;;;;;;;21.57;12.28;;;;;;;-5.14;100.00;100962.48;1634478;85;21176;-63
2022/12/08 01:44:22;;;;;;;21.50;10.05;;;;;;;-5.12;100.00;100967.48;1636343;85;21106;-62
2022/12/08 01:46:49;;;;;;;17.37;10.18;;;;;;;-5.08;100.00;100961.38;1633680;85;21033;-62
2022/12/08 01:49:21;;;;;;;18.05;10.05;;;;;;;-5.06;100.00;100954.53;1637787;87;21538;-63
2022/12/08 01:52:00;;;;;;;22.13;9.50;;;;;;;-5.03;100.00;100956.13;1661241;85;21080;-62
2022/12/08 01:54:30;;;;;;;18.37;10.78;;;;;;;-4.99;100.00;100971.63;1656897;84;21254;-63
2022/12/08 01:57:04;;;;;;;15.90;10.03;;;;;;;-4.95;100.00;100970.14;1666379;86;21221;-63
2022/12/08 01:59:34;;;;;;;17.67;10.68;;;;;;;-4.92;100.00;100972.56;1641079;85;20978;-63
2022/12/08 02:02:01;;;;;;;19.20;11.22;;;;;;;-4.91;100.00;100970.84;1640799;85;20946;-63
2022/12/08 02:04:30;;;;;;;19.15;10.53;;;;;;;-4.87;100.00;100972.36;1640119;87;21002;-62
2022/12/08 02:06:58;;;;;;;17.60;10.45;;;;;;;-4.85;100.00;100982.00;1641016;86;21215;-62
2022/12/08 02:09:26;;;;;;;19.23;10.45;;;;;;;-4.82;100.00;100978.05;1640949;85;21519;-62
2022/12/08 02:11:54;;;;;;;18.15;9.90;;;;;;;-4.80;100.00;100975.02;1641694;85;21027;-62
2022/12/08 02:14:22;;;;;;;16.55;10.08;;;;;;;-4.78;100.00;100975.75;1639846;87;20962;-62
2022/12/08 02:17:13;;;;;;;20.10;11.03;;;;;;;-4.78;100.00;100969.39;1641519;85;21170;-62
2022/12/08 02:20:31;;;;;;;20.17;9.93;;;;;;;-4.78;100.00;100971.94;1641578;85;21158;-63
2022/12/08 02:23:20;;;;;;;18.40;10.48;;;;;;;-4.76;100.00;100975.26;1641543;85;21061;-64
2022/12/08 02:26:17;;;;;;;19.42;10.88;;;;;;;-4.75;100.00;100965.45;1641106;85;20999;-63
2022/12/08 02:28:52;;;;;;;18.32;10.25;;;;;;;-4.73;100.00;100962.41;1640172;85;20922;-63
2022/12/08 02:31:37;;;;;;;18.23;9.85;;;;;;;-4.71;100.00;100952.97;1640576;85;21105;-63
2022/12/08 02:34:18;;;;;;;18.50;10.28;;;;;;;-4.69;100.00;100952.92;1640871;87;21969;-65
2022/12/08 02:37:05;;;;;;;18.75;9.93;;;;;;;-4.67;100.00;100962.12;1641173;85;25247;-62
2022/12/08 02:40:11;;;;;;;18.60;9.88;;;;;;;-4.66;100.00;100951.07;1595870;88;20991;-62
2022/12/08 02:42:56;;;;;;;17.92;10.45;;;;;;;-4.62;100.00;100952.18;1641046;85;21033;-63
2022/12/08 02:45:32;;;;;;;19.12;10.90;;;;;;;-4.60;100.00;100948.69;1638033;87;21089;-63
2022/12/08 02:47:59;;;;;;;16.55;9.85;;;;;;;-4.57;100.00;100938.37;1637786;86;21446;-63
2022/12/08 02:50:28;;;;;;;17.42;10.05;;;;;;;-4.53;100.00;100939.06;1638137;85;21105;-63
2022/12/08 02:52:55;;;;;;;16.17;9.78;;;;;;;-4.51;100.00;100947.44;1637328;86;20927;-64
2022/12/08 02:55:30;;;;;;;18.90;9.93;;;;;;;-4.49;100.00;100937.58;1638189;87;21409;-63
2022/12/08 02:58:11;;;;;;;18.42;8.98;;;;;;;-4.46;100.00;100942.98;1638285;87;21480;-63
2022/12/08 03:01:06;;;;;;;17.92;9.60;;;;;;;-4.44;100.00;100949.63;1637615;85;21228;-64
2022/12/08 03:04:11;;;;;;;15.32;8.93;;;;;;;-4.40;100.00;100929.51;1637785;85;21054;-63
2022/12/08 03:07:06;;;;;;;17.80;10.13;;;;;;;-4.37;100.00;100926.01;1637927;85;21031;-64
2022/12/08 03:09:51;;;;;;;18.10;9.18;;;;;;;-4.36;100.00;100927.65;1610586;87;21072;-64
2022/12/08 03:12:45;;;;;;;14.78;9.10;;;;;;;-4.35;100.00;100931.86;1612128;88;21022;-62
2022/12/08 03:15:14;;;;;;;14.73;8.83;;;;;;;-4.32;100.00;100930.42;1611832;88;21607;-63
2022/12/08 03:17:47;;;;;;;14.80;8.15;;;;;;;-4.29;100.00;100930.73;1632780;87;20983;-64
2022/12/08 03:20:19;;;;;;;15.70;9.30;;;;;;;-4.28;100.00;100934.50;1636750;87;21053;-63
2022/12/08 03:22:47;;;;;;;16.62;8.75;;;;;;;-4.28;100.00;100923.05;1636642;87;21046;-62
2022/12/08 03:25:14;;;;;;;16.65;9.20;;;;;;;-4.26;100.00;100930.60;1636473;86;21090;-62
2022/12/08 03:27:41;;;;;;;16.07;8.85;;;;;;;-4.23;100.00;100941.47;1636340;87;21242;-62
2022/12/08 03:30:10;;;;;;;18.55;9.73;;;;;;;-4.18;100.00;100947.16;1633098;87;20971;-63
2022/12/08 03:32:52;;;;;;;20.30;9.48;;;;;;;-4.16;100.00;100940.29;1633011;87;21065;-62
2022/12/08 03:35:25;;;;;;;18.98;11.18;;;;;;;-4.12;100.00;100937.61;1633258;86;22124;-62
2022/12/08 03:38:10;;;;;;;16.95;8.25;;;;;;;-4.09;100.00;100945.08;1633172;87;21165;-62
2022/12/08 03:40:38;;;;;;;15.70;8.70;;;;;;;-4.05;100.00;100946.58;1632700;87;21571;-63
2022/12/08 03:43:05;;;;;;;16.97;8.50;;;;;;;-4.05;100.00;100940.21;1633284;87;22414;-62
2022/12/08 03:45:33;;;;;;;19.90;10.08;;;;;;;-4.05;100.00;100951.67;1633056;87;20983;-62
2022/12/08 03:48:01;;;;;;;18.92;9.35;;;;;;;-4.07;100.00;100949.20;1633056;87;21014;-62
2022/12/08 03:50:28;;;;;;;22.05;11.43;;;;;;;-4.07;100.00;100944.56;1633473;87;21500;-62
2022/12/08 03:52:56;;;;;;;22.35;10.20;;;;;;;-4.05;100.00;100963.13;1633509;87;22506;-62
2022/12/08 03:55:24;;;;;;;14.40;8.45;;;;;;;-4.05;100.00;100944.03;1636830;87;22175;-62
2022/12/08 03:57:51;;;;;;;20.95;9.53;;;;;;;-4.03;100.00;100949.89;1636051;86;20979;-63
2022/12/08 04:00:20;;;;;;;21.57;10.23;;;;;;;-4.03;100.00;100935.88;1635466;86;21006;-63
2022/12/08 04:02:47;;;;;;;17.23;8.98;;;;;;;-4.01;100.00;100940.47;1634002;87;21108;-62
2022/12/08 04:05:16;;;;;;;13.70;7.62;;;;;;;-4.00;100.00;100942.11;1632872;87;21819;-62
2022/12/08 04:07:43;;;;;;;17.62;7.87;;;;;;;-3.98;100.00;100935.20;1633144;87;21580;-62
2022/12/08 04:10:11;;;;;;;13.85;7.67;;;;;;;-3.98;100.00;100932.23;1633056;87;21071;-62
2022/12/08 04:12:38;;;;;;;14.30;7.87;;;;;;;-3.96;100.00;100927.06;1633280;87;21054;-62
2022/12/08 04:15:07;;;;;;;15.68;8.00;;;;;;;-3.92;100.00;100940.02;1632615;87;21099;-63
2022/12/08 04:17:35;;;;;;;12.68;7.03;;;;;;;-3.91;100.00;100935.30;1633284;87;21598;-62
2022/12/08 04:20:03;;;;;;;15.38;8.78;;;;;;;-3.88;100.00;100941.52;1632703;86;20984;-62
2022/12/08 04:22:33;;;;;;;16.15;8.30;;;;;;;-3.87;100.00;100944.88;1633306;87;21043;-62
2022/12/08 04:25:00;;;;;;;13.93;7.03;;;;;;;-3.86;100.00;100936.34;1632961;87;21553;-63
2022/12/08 04:27:28;;;;;;;13.53;7.10;;;;;;;-3.84;100.00;100926.45;1633021;87;21025;-62
2022/12/08 04:29:56;;;;;;;14.75;7.22;;;;;;;-3.84;100.00;100916.27;1632591;87;21290;-61
2022/12/08 04:32:23;;;;;;;11.38;6.97;;;;;;;-3.84;100.00;100927.73;1633311;86;22512;-62
2022/12/08 04:34:51;;;;;;;14.53;7.90;;;;;;;-3.82;100.00;100929.77;1633349;86;21553;-62
2022/12/08 04:37:20;;;;;;;15.85;7.67;;;;;;;-3.82;100.00;100929.77;1632193;87;21068;-63
2022/12/08 04:39:48;;;;;;;16.05;8.23;;;;;;;-3.80;100.00;100933.05;1632510;86;21041;-62
2022/12/08 04:42:16;;;;;;;14.53;7.20;;;;;;;-3.78;100.00;100930.00;1633007;87;21189;-61
2022/12/08 04:44:44;;;;;;;14.80;6.97;;;;;;;-3.75;100.00;100928.58;1632925;87;21007;-62
2022/12/08 04:47:12;;;;;;;13.98;7.35;;;;;;;-3.73;100.00;100928.49;1632399;87;20951;-62
2022/12/08 04:49:39;;;;;;;16.20;8.13;;;;;;;-3.70;100.00;100935.54;1633335;87;21106;-62
2022/12/08 04:52:07;;;;;;;12.80;7.05;;;;;;;-3.68;100.00;100936.72;1632420;86;21042;-62
2022/12/08 04:54:35;;;;;;;17.92;9.43;;;;;;;-3.67;100.00;100939.22;1633033;87;21285;-61
2022/12/08 04:57:02;;;;;;;14.07;7.67;;;;;;;-3.68;100.00;100943.91;1633037;87;20971;-62
2022/12/08 04:59:30;;;;;;;13.53;6.85;;;;;;;-3.68;100.00;100940.09;1632829;87;21113;-62
2022/12/08 05:01:57;;;;;;;16.62;8.88;;;;;;;-3.67;100.00;100944.77;1632707;87;21082;-62
2022/12/08 05:04:25;;;;;;;14.70;8.55;;;;;;;-3.69;100.00;100951.19;1632897;86;21089;-62
2022/12/08 05:06:52;;;;;;;16.50;8.25;;;;;;;-3.69;100.00;100965.20;1633004;87;21180;-62
2022/12/08 05:09:23;;;;;;;18.62;9.60;;;;;;;-3.69;100.00;100971.57;1632580;87;21012;-62
2022/12/08 05:11:50;;;;;;;16.25;7.40;;;;;;;-3.69;100.00;100970.75;1632853;87;21098;-64
2022/12/08 05:14:18;;;;;;;12.68;7.28;;;;;;;-3.67;100.00;100972.79;1632753;86;21059;-65
2022/12/08 05:16:46;;;;;;;20.72;10.70;;;;;;;-3.67;100.00;100974.88;1633072;87;21121;-65
2022/12/08 05:19:13;;;;;;;19.55;9.78;;;;;;;-3.67;100.00;100972.79;1632301;87;21288;-62
2022/12/08 05:21:41;;;;;;;15.63;7.87;;;;;;;-3.67;100.00;100971.06;1632980;86;21074;-63
2022/12/08 05:24:09;;;;;;;15.38;7.97;;;;;;;-3.67;100.00;100973.61;1632448;87;21086;-61
2022/12/08 05:26:38;;;;;;;12.63;6.60;;;;;;;-3.66;100.00;100976.98;1632922;87;21037;-63
2022/12/08 05:29:06;;;;;;;15.35;8.35;;;;;;;-3.67;100.00;100974.88;1632366;87;20880;-64
2022/12/08 05:31:33;;;;;;;14.38;8.08;;;;;;;-3.68;100.00;100972.39;1633012;87;21162;-63
2022/12/08 05:34:00;;;;;;;14.78;8.75;;;;;;;-3.70;100.00;100980.13;1632659;86;21010;-63
2022/12/08 05:36:27;;;;;;;15.88;8.38;;;;;;;-3.69;100.00;100981.77;1632716;87;20986;-64
2022/12/08 05:38:57;;;;;;;16.32;8.90;;;;;;;-3.66;100.00;100975.70;1632775;86;21067;-63
2022/12/08 05:41:25;;;;;;;18.52;9.83;;;;;;;-3.67;100.00;100978.70;1632861;86;21106;-64
2022/12/08 05:43:54;;;;;;;18.52;9.60;;;;;;;-3.69;100.00;100970.30;1633114;86;21178;-64
2022/12/08 05:46:21;;;;;;;22.27;10.88;;;;;;;-3.69;100.00;100977.94;1632315;86;20975;-64
2022/12/08 05:48:49;;;;;;;16.52;9.03;;;;;;;-3.68;100.00;100991.50;1632995;86;21126;-64
2022/12/08 05:51:19;;;;;;;16.62;9.00;;;;;;;-3.66;100.00;100996.09;1632348;87;21087;-64
2022/12/08 05:53:47;;;;;;;22.60;11.53;;;;;;;-3.60;100.00;100994.95;1633120;86;21109;-64
2022/12/08 05:56:14;;;;;;;20.60;10.30;;;;;;;-3.58;100.00;100995.72;1632503;87;21229;-64
2022/12/08 05:58:41;;;;;;;15.55;8.80;;;;;;;-3.54;100.00;100994.21;1633087;87;21596;-64
2022/12/08 06:01:23;;;;;;;18.02;8.95;;;;;;;-3.51;100.00;100997.89;1632198;87;21008;-66
2022/12/08 06:03:51;;;;;;;11.35;6.80;;;;;;;-3.49;100.00;100992.70;1633488;86;21040;-63
2022/12/08 06:06:18;;;;;;;15.45;7.55;;;;;;;-3.46;100.00;100995.11;1632730;86;21505;-65
2022/12/08 06:08:45;;;;;;;15.78;8.88;;;;;;;-3.44;100.00;100994.15;1632627;87;21953;-64
2022/12/08 06:11:26;;;;;;;15.58;8.28;;;;;;;-3.38;100.00;100996.83;1632802;86;21471;-64
2022/12/08 06:13:54;;;;;;;22.10;10.82;;;;;;;-3.33;100.00;101000.00;1632777;86;21561;-63
2022/12/08 06:16:24;;;;;;;13.48;7.20;;;;;;;-3.25;100.00;101002.98;1632633;87;21043;-65
2022/12/08 06:18:52;;;;;;;14.30;7.78;;;;;;;-3.21;100.00;100993.02;1632856;87;21608;-65
2022/12/08 06:21:20;;;;;;;13.70;7.65;;;;;;;-3.21;100.00;100999.39;1633053;86;21187;-65
2022/12/08 06:23:49;;;;;;;14.73;8.03;;;;;;;-3.22;100.00;101004.12;1632839;87;21003;-64
2022/12/08 06:26:16;;;;;;;14.47;7.55;;;;;;;-3.22;100.00;101005.39;1632423;86;21002;-64
2022/12/08 06:28:44;;;;;;;14.07;8.50;;;;;;;-3.25;100.00;101004.27;1632229;87;21101;-62
2022/12/08 06:31:22;;;;;;;13.93;8.03;;;;;;;-3.27;100.00;101003.50;1632913;87;21114;-64
2022/12/08 06:33:49;;;;;;;17.25;10.13;;;;;;;-3.25;100.00;101005.99;1633025;87;21257;-64
2022/12/08 06:36:18;;;;;;;15.38;9.38;;;;;;;-3.24;100.00;100998.71;1639986;87;21045;-64
2022/12/08 06:38:45;;;;;;;17.27;9.05;;;;;;;-3.21;100.00;101005.76;1607643;89;21123;-64
2022/12/08 06:41:13;;;;;;;16.55;9.80;;;;;;;-3.13;100.00;101014.76;1654360;85;22557;-64
2022/12/08 06:43:41;;;;;;;15.50;8.50;;;;;;;-3.08;100.00;101022.53;1654305;86;21005;-64
2022/12/08 06:46:12;;;;;;;13.72;7.17;;;;;;;-3.05;100.00;101017.74;1653419;85;21221;-64
2022/12/08 06:48:40;;;;;;;13.18;7.83;;;;;;;-3.02;100.00;101020.97;1654026;86;20965;-64
2022/12/08 06:51:16;;;;;;;12.88;7.62;;;;;;;-3.06;100.00;101019.92;1654090;86;21058;-66
2022/12/08 06:53:44;;;;;;;15.75;8.48;;;;;;;-3.06;100.00;101013.55;1653414;86;20977;-65
2022/12/08 06:56:13;;;;;;;14.10;7.92;;;;;;;-3.06;100.00;101014.83;1654061;86;21385;-65
2022/12/08 06:58:40;;;;;;;11.15;6.87;;;;;;;-3.04;100.00;101014.28;1668207;85;21272;-66
2022/12/08 07:01:11;;;;;;;16.27;8.38;;;;;;;-3.00;100.00;101020.88;1668448;85;21545;-66
2022/12/08 07:03:38;;;;;;;21.02;9.13;;;;;;;-2.92;100.00;101017.94;1668831;84;21015;-64
2022/12/08 07:06:06;;;;;;;15.40;9.33;;;;;;;-2.88;100.00;101017.70;1667856;84;20991;-66
2022/12/08 07:08:35;;;;;;;16.70;8.78;;;;;;;-2.86;100.00;101019.73;1667913;84;21142;-65
2022/12/08 07:11:08;;;;;;;18.15;10.00;;;;;;;-2.82;100.00;101028.88;1668707;85;22529;-65
2022/12/08 07:13:35;;;;;;;19.82;11.40;;;;;;;-2.82;100.00;101022.50;1668373;85;20992;-65
2022/12/08 07:16:08;;;;;;;17.90;9.35;;;;;;;-2.81;100.00;101024.14;1667861;84;21539;-64
2022/12/08 07:18:35;;;;;;;;;;;;;;;-2.77;100.00;101032.01;1670879;85;21123;-65
2022/12/08 07:21:06;;;;;;;15.53;8.58;;;;;;;-2.74;100.00;101032.31;1668447;84;20226;-65
2022/12/08 07:23:33;;;;;;;14.03;8.33;;;;;;;-2.73;100.00;101027.15;1668403;84;21152;-64
2022/12/08 07:26:03;;;;;;;19.98;10.13;;;;;;;-2.72;100.00;101026.70;1667859;84;20956;-65
2022/12/08 07:28:33;;;;;;;15.85;9.10;;;;;;;-2.71;100.00;101027.88;1667877;84;21015;-64
2022/12/08 07:31:00;;;;;;;16.37;10.35;;;;;;;-2.71;100.00;101025.33;1668159;85;21683;-64
2022/12/08 07:33:28;;;;;;;18.67;10.15;;;;;;;-2.73;100.00;101023.32;1650501;84;21115;-65
2022/12/08 07:35:58;;;;;;;27.10;13.13;;;;;;;-2.66;100.00;101020.44;1640020;87;21182;-64
2022/12/08 07:38:25;;;;;;;24.18;13.68;;;;;;;-2.63;100.00;101016.45;1611707;88;21164;-63
2022/12/08 07:40:53;;;;;;;31.12;14.70;;;;;;;-2.60;100.00;101018.40;1661713;86;20901;-64
2022/12/08 07:43:21;;;;;;;23.05;13.08;;;;;;;-2.57;100.00;101013.59;1627509;87;21551;-64
2022/12/08 07:45:48;;;;;;;29.95;14.60;;;;;;;-2.55;100.00;101016.87;1640250;86;21591;-63
2022/12/08 07:48:16;;;;;;;27.32;13.58;;;;;;;-2.53;100.00;101024.02;1666514;86;21816;-64
2022/12/08 07:50:43;;;;;;;19.45;10.90;;;;;;;-2.52;100.00;101027.75;1669589;84;20987;-64
2022/12/08 07:53:11;;;;;;;22.70;12.03;;;;;;;-2.47;100.00;101027.50;1655516;85;22391;-64
2022/12/08 07:55:41;;;;;;;16.67;9.48;;;;;;;-2.44;100.00;101027.34;1661126;86;21478;-64
2022/12/08 07:58:10;;;;;;;18.13;10.80;;;;;;;-2.43;100.00;101017.50;1661803;86;21321;-65
2022/12/08 08:00:37;;;;;;;15.53;9.20;;;;;;;-2.40;100.00;101015.25;1660931;86;21172;-65
2022/12/08 08:03:07;;;;;;;18.52;9.98;;;;;;;-2.38;100.00;101001.50;1660952;86;21647;-66
2022/12/08 08:05:34;;;;;;;20.65;11.97;;;;;;;-2.33;100.00;101007.64;1660473;86;20959;-65
2022/12/08 08:08:01;;;;;;;16.57;9.60;;;;;;;-2.30;100.00;101008.30;1660617;86;21270;-66
2022/12/08 08:10:30;;;;;;;14.78;9.45;;;;;;;-2.30;100.00;101015.14;1660642;86;21596;-66
2022/12/08 08:13:00;;;;;;;16.10;8.48;;;;;;;-2.27;100.00;101009.42;1661398;84;21123;-66
2022/12/08 08:15:27;;;;;;;15.30;9.58;;;;;;;-2.19;100.00;101009.47;1661412;85;21040;-69
2022/12/08 08:17:56;;;;;;;16.32;9.83;;;;;;;-2.14;100.00;101009.58;1661064;84;20929;-71
2022/12/08 08:20:23;;;;;;;14.15;8.28;;;;;;;-2.08;100.00;101009.71;1661019;84;21102;-70
2022/12/08 08:22:50;;;;;;;18.32;10.10;;;;;;;-2.07;100.00;101011.34;1661416;86;21122;-70
2022/12/08 22:30:31;;;;;;;12.70;7.73;;;;;;;1.35;100.00;100892.27;1770395;78;23002;-61
2022/12/08 22:32:58;;;;;;;13.43;8.70;;;;;;;1.54;100.00;100897.74;1780645;79;20990;-62
2022/12/08 22:35:25;;;;;;;15.20;9.25;;;;;;;1.63;100.00;100888.55;1791879;78;21152;-66
2022/12/08 22:37:53;;;;;;;13.95;9.00;;;;;;;1.61;100.00;100889.14;1785916;78;21714;-62
2022/12/08 22:40:21;;;;;;;13.48;8.75;;;;;;;1.61;100.00;100896.84;1753210;79;20887;-61
2022/12/08 22:42:49;;;;;;;11.75;8.40;;;;;;;1.51;100.00;100896.67;1785285;78;21461;-62
2022/12/08 22:45:17;;;;;;;13.38;7.90;;;;;;;1.53;100.00;100893.55;1762136;79;21023;-66
2022/12/08 22:47:45;;;;;;;15.32;9.75;;;;;;;1.54;100.00;100895.17;1783399;79;21739;-59
2022/12/08 22:50:12;;;;;;;16.73;10.38;;;;;;;1.59;100.00;100885.84;1785226;79;21089;-58
2022/12/08 22:52:40;;;;;;;14.50;8.63;;;;;;;1.59;100.00;100889.27;1794994;78;21423;-65
2022/12/08 22:55:09;;;;;;;14.30;9.73;;;;;;;1.69;100.00;100880.41;1783407;79;20987;-59
2022/12/08 22:57:36;;;;;;;15.40;9.38;;;;;;;1.73;100.00;100875.88;1789701;79;21211;-62
2022/12/08 23:00:04;;;;;;;13.65;8.65;;;;;;;1.68;100.00;100873.64;1792013;78;21332;-62
2022/12/08 23:02:33;;;;;;;13.95;9.20;;;;;;;1.63;100.00;100875.27;1792504;78;20958;-61
2022/12/08 23:05:01;;;;;;;18.50;10.85;;;;;;;1.64;100.00;100873.03;1777553;78;20922;-67
2022/12/08 23:07:28;;;;;;;17.10;11.15;;;;;;;1.67;100.00;100871.54;1790870;78;22152;-62
2022/12/08 23:09:55;;;;;;;14.90;9.25;;;;;;;1.67;100.00;100870.72;1754814;81;21051;-62
2022/12/08 23:12:23;;;;;;;16.12;9.43;;;;;;;1.64;100.00;100873.03;1756920;79;21606;-60
2022/12/08 23:14:50;;;;;;;16.87;9.33;;;;;;;1.71;100.00;100872.14;1747908;78;21113;-59
2022/12/08 23:17:18;;;;;;;14.23;8.95;;;;;;;1.62;100.00;100863.32;1758606;79;21029;-66
2022/12/08 23:19:45;;;;;;;13.40;9.48;;;;;;;1.56;100.00;100861.20;1755903;79;21528;-59
2022/12/08 23:22:12;;;;;;;13.05;8.03;;;;;;;1.48;100.00;100866.08;1725918;82;20990;-58
2022/12/08 23:24:39;;;;;;;13.35;8.18;;;;;;;1.54;100.00;100856.63;1782924;79;22423;-58
2022/12/08 23:27:07;;;;;;;15.48;9.78;;;;;;;1.57;100.00;100865.41;1778126;80;20904;-58
2022/12/08 23:29:34;;;;;;;14.03;8.83;;;;;;;1.65;100.00;100880.28;1781586;78;21326;-59
2022/12/08 23:32:03;;;;;;;11.90;7.80;;;;;;;1.70;100.00;100879.47;1775636;80;21005;-59
2022/12/08 23:34:31;;;;;;;13.40;9.08;;;;;;;1.69;100.00;100880.41;1783705;79;20931;-59
2022/12/08 23:36:58;;;;;;;15.25;10.13;;;;;;;1.65;100.00;100872.10;1780624;79;21291;-62
2022/12/08 23:39:26;;;;;;;13.05;8.35;;;;;;;1.61;100.00;100870.69;1760554;81;20969;-65
2022/12/08 23:41:53;;;;;;;15.30;10.00;;;;;;;1.63;100.00;100871.84;1745310;79;20990;-58
2022/12/08 23:44:20;;;;;;;15.30;10.30;;;;;;;1.63;100.00;100871.41;1718675;81;21548;-58
2022/12/08 23:46:48;;;;;;;15.32;9.65;;;;;;;1.56;100.00;100866.34;1751984;78;21001;-65
2022/12/08 23:49:16;;;;;;;15.00;9.05;;;;;;;1.54;100.00;100854.06;1758747;79;21246;-59
2022/12/08 23:51:43;;;;;;;13.70;8.30;;;;;;;1.53;100.00;100857.56;1753601;78;21528;-65
2022/12/08 23:54:11;;;;;;;12.45;8.48;;;;;;;1.49;100.00;100862.58;1721089;81;21367;-59
2022/12/08 23:56:39;;;;;;;11.93;7.78;;;;;;;1.49;100.00;100848.45;1782944;79;21508;-66
2022/12/08 23:59:06;;;;;;;14.25;8.55;;;;;;;1.48;100.00;100850.67;1778377;79;21002;-59
